sensor_id;sensor_type;location;lat;lon;timestamp;P1;durP1;ratioP1;P2;durP2;ratioP2
27558;SDS011;15002;52.028;5.670;2023-05-10T00:00:23;45.05;;;24.05;;
27558;SDS011;15002;52.028;5.670;2023-05-10T00:02:49;49.40;;;25.92;;
27558;SDS011;15002;52.028;5.670;2023-05-10T00:05:14;45.70;;;25.75;;
27558;SDS011;15002;52.028;5.670;2023-05-10T00:07:40;44.33;;;24.80;;
27558;SDS011;15002;52.028;5.670;2023-05-10T00:10:09;51.28;;;26.73;;
27558;SDS011;15002;52.028;5.670;2023-05-10T00:12:35;44.00;;;24.58;;
27558;SDS011;15002;52.028;5.670;2023-05-10T00:15:01;50.63;;;26.98;;
27558;SDS011;15002;52.028;5.670;2023-05-10T00:17:27;47.45;;;26.33;;
27558;SDS011;15002;52.028;5.670;2023-05-10T00:19:53;48.95;;;26.30;;
27558;SDS011;15002;52.028;5.670;2023-05-10T00:22:19;49.65;;;26.65;;
27558;SDS011;15002;52.028;5.670;2023-05-10T00:24:45;50.92;;;26.65;;
27558;SDS011;15002;52.028;5.670;2023-05-10T00:27:10;49.38;;;26.80;;
27558;SDS011;15002;52.028;5.670;2023-05-10T00:29:36;56.00;;;27.65;;
27558;SDS011;15002;52.028;5.670;2023-05-10T00:32:02;56.88;;;29.67;;
27558;SDS011;15002;52.028;5.670;2023-05-10T00:34:27;54.67;;;29.15;;
27558;SDS011;15002;52.028;5.670;2023-05-10T00:36:53;53.30;;;29.23;;
27558;SDS011;15002;52.028;5.670;2023-05-10T00:39:19;51.10;;;28.98;;
27558;SDS011;15002;52.028;5.670;2023-05-10T00:41:45;55.70;;;29.52;;
27558;SDS011;15002;52.028;5.670;2023-05-10T00:44:10;51.55;;;28.65;;
27558;SDS011;15002;52.028;5.670;2023-05-10T00:46:36;58.95;;;30.02;;
27558;SDS011;15002;52.028;5.670;2023-05-10T00:49:02;56.90;;;30.92;;
27558;SDS011;15002;52.028;5.670;2023-05-10T00:51:28;56.33;;;31.02;;
27558;SDS011;15002;52.028;5.670;2023-05-10T00:53:53;56.08;;;30.92;;
27558;SDS011;15002;52.028;5.670;2023-05-10T00:56:21;59.90;;;31.83;;
27558;SDS011;15002;52.028;5.670;2023-05-10T00:58:48;58.95;;;32.15;;
27558;SDS011;15002;52.028;5.670;2023-05-10T01:01:14;62.65;;;32.80;;
27558;SDS011;15002;52.028;5.670;2023-05-10T01:03:39;61.58;;;32.42;;
27558;SDS011;15002;52.028;5.670;2023-05-10T01:06:05;63.13;;;32.10;;
27558;SDS011;15002;52.028;5.670;2023-05-10T01:08:31;64.63;;;32.00;;
27558;SDS011;15002;52.028;5.670;2023-05-10T01:10:58;61.67;;;32.13;;
27558;SDS011;15002;52.028;5.670;2023-05-10T01:13:34;60.22;;;31.98;;
27558;SDS011;15002;52.028;5.670;2023-05-10T01:16:02;65.75;;;32.72;;
27558;SDS011;15002;52.028;5.670;2023-05-10T01:18:29;68.72;;;33.45;;
27558;SDS011;15002;52.028;5.670;2023-05-10T01:21:01;69.13;;;34.00;;
27558;SDS011;15002;52.028;5.670;2023-05-10T01:23:50;68.68;;;34.63;;
27558;SDS011;15002;52.028;5.670;2023-05-10T01:26:46;63.97;;;33.38;;
27558;SDS011;15002;52.028;5.670;2023-05-10T01:35:33;63.15;;;31.13;;
27558;SDS011;15002;52.028;5.670;2023-05-10T01:40:48;66.65;;;31.10;;
27558;SDS011;15002;52.028;5.670;2023-05-10T01:43:38;62.72;;;30.55;;
27558;SDS011;15002;52.028;5.670;2023-05-10T01:46:20;58.72;;;28.73;;
27558;SDS011;15002;52.028;5.670;2023-05-10T01:48:54;61.35;;;30.30;;
27558;SDS011;15002;52.028;5.670;2023-05-10T01:51:26;59.30;;;30.13;;
27558;SDS011;15002;52.028;5.670;2023-05-10T01:54:00;60.60;;;28.92;;
27558;SDS011;15002;52.028;5.670;2023-05-10T01:56:29;58.20;;;28.58;;
27558;SDS011;15002;52.028;5.670;2023-05-10T01:58:57;60.35;;;27.92;;
27558;SDS011;15002;52.028;5.670;2023-05-10T02:01:25;57.15;;;27.65;;
27558;SDS011;15002;52.028;5.670;2023-05-10T02:03:52;58.58;;;27.98;;
27558;SDS011;15002;52.028;5.670;2023-05-10T02:06:20;62.35;;;27.88;;
27558;SDS011;15002;52.028;5.670;2023-05-10T02:08:47;58.40;;;27.67;;
27558;SDS011;15002;52.028;5.670;2023-05-10T02:11:15;66.07;;;30.30;;
27558;SDS011;15002;52.028;5.670;2023-05-10T02:13:43;57.83;;;27.73;;
27558;SDS011;15002;52.028;5.670;2023-05-10T02:16:12;63.35;;;29.17;;
27558;SDS011;15002;52.028;5.670;2023-05-10T02:18:39;65.45;;;28.80;;
27558;SDS011;15002;52.028;5.670;2023-05-10T02:21:06;64.78;;;30.58;;
27558;SDS011;15002;52.028;5.670;2023-05-10T02:23:32;61.70;;;29.77;;
27558;SDS011;15002;52.028;5.670;2023-05-10T02:25:59;62.80;;;30.75;;
27558;SDS011;15002;52.028;5.670;2023-05-10T02:28:26;63.95;;;28.80;;
27558;SDS011;15002;52.028;5.670;2023-05-10T02:30:54;62.33;;;28.77;;
27558;SDS011;15002;52.028;5.670;2023-05-10T02:33:20;61.67;;;28.50;;
27558;SDS011;15002;52.028;5.670;2023-05-10T02:35:47;62.60;;;29.40;;
27558;SDS011;15002;52.028;5.670;2023-05-10T02:38:14;68.30;;;31.23;;
27558;SDS011;15002;52.028;5.670;2023-05-10T02:40:41;72.60;;;31.08;;
27558;SDS011;15002;52.028;5.670;2023-05-10T02:43:09;67.80;;;30.02;;
27558;SDS011;15002;52.028;5.670;2023-05-10T02:45:39;67.82;;;31.00;;
27558;SDS011;15002;52.028;5.670;2023-05-10T02:48:06;69.50;;;32.15;;
27558;SDS011;15002;52.028;5.670;2023-05-10T02:50:33;73.03;;;31.48;;
27558;SDS011;15002;52.028;5.670;2023-05-10T02:53:00;70.30;;;31.10;;
27558;SDS011;15002;52.028;5.670;2023-05-10T02:55:31;66.50;;;31.02;;
27558;SDS011;15002;52.028;5.670;2023-05-10T02:58:00;63.38;;;30.98;;
27558;SDS011;15002;52.028;5.670;2023-05-10T03:00:26;68.70;;;31.52;;
27558;SDS011;15002;52.028;5.670;2023-05-10T03:02:52;68.22;;;30.48;;
27558;SDS011;15002;52.028;5.670;2023-05-10T03:05:18;68.38;;;32.38;;
27558;SDS011;15002;52.028;5.670;2023-05-10T03:07:44;69.53;;;31.65;;
27558;SDS011;15002;52.028;5.670;2023-05-10T03:10:11;70.43;;;31.00;;
27558;SDS011;15002;52.028;5.670;2023-05-10T03:12:49;61.40;;;29.55;;
27558;SDS011;15002;52.028;5.670;2023-05-10T03:15:44;72.60;;;31.63;;
27558;SDS011;15002;52.028;5.670;2023-05-10T03:18:28;71.18;;;30.13;;
27558;SDS011;15002;52.028;5.670;2023-05-10T03:21:02;71.05;;;32.58;;
27558;SDS011;15002;52.028;5.670;2023-05-10T03:23:45;68.45;;;32.05;;
27558;SDS011;15002;52.028;5.670;2023-05-10T03:26:25;69.97;;;32.78;;
27558;SDS011;15002;52.028;5.670;2023-05-10T03:28:52;69.60;;;32.95;;
27558;SDS011;15002;52.028;5.670;2023-05-10T03:31:18;67.03;;;32.03;;
27558;SDS011;15002;52.028;5.670;2023-05-10T03:33:47;65.55;;;31.35;;
27558;SDS011;15002;52.028;5.670;2023-05-10T03:36:13;66.85;;;32.63;;
27558;SDS011;15002;52.028;5.670;2023-05-10T03:38:39;71.13;;;33.85;;
27558;SDS011;15002;52.028;5.670;2023-05-10T03:41:05;69.35;;;34.88;;
27558;SDS011;15002;52.028;5.670;2023-05-10T03:43:31;71.55;;;33.40;;
27558;SDS011;15002;52.028;5.670;2023-05-10T03:45:56;68.78;;;33.17;;
27558;SDS011;15002;52.028;5.670;2023-05-10T03:48:22;66.32;;;32.53;;
27558;SDS011;15002;52.028;5.670;2023-05-10T03:50:47;74.82;;;33.80;;
27558;SDS011;15002;52.028;5.670;2023-05-10T03:53:14;72.18;;;32.85;;
27558;SDS011;15002;52.028;5.670;2023-05-10T03:55:40;68.55;;;32.60;;
27558;SDS011;15002;52.028;5.670;2023-05-10T03:58:06;65.55;;;30.88;;
27558;SDS011;15002;52.028;5.670;2023-05-10T04:00:31;67.97;;;30.95;;
27558;SDS011;15002;52.028;5.670;2023-05-10T04:02:57;70.25;;;31.30;;
27558;SDS011;15002;52.028;5.670;2023-05-10T04:05:23;72.13;;;30.33;;
27558;SDS011;15002;52.028;5.670;2023-05-10T04:07:49;70.57;;;32.35;;
27558;SDS011;15002;52.028;5.670;2023-05-10T04:10:16;74.97;;;33.83;;
27558;SDS011;15002;52.028;5.670;2023-05-10T04:12:41;72.55;;;32.90;;
27558;SDS011;15002;52.028;5.670;2023-05-10T04:15:07;77.55;;;32.95;;
27558;SDS011;15002;52.028;5.670;2023-05-10T04:17:33;80.10;;;33.15;;
27558;SDS011;15002;52.028;5.670;2023-05-10T04:19:59;76.45;;;33.25;;
27558;SDS011;15002;52.028;5.670;2023-05-10T04:22:25;74.53;;;33.53;;
27558;SDS011;15002;52.028;5.670;2023-05-10T04:24:50;75.93;;;33.22;;
27558;SDS011;15002;52.028;5.670;2023-05-10T04:27:16;86.07;;;34.03;;
27558;SDS011;15002;52.028;5.670;2023-05-10T04:29:41;88.05;;;34.72;;
27558;SDS011;15002;52.028;5.670;2023-05-10T04:32:07;82.15;;;34.35;;
27558;SDS011;15002;52.028;5.670;2023-05-10T04:34:35;71.55;;;32.45;;
27558;SDS011;15002;52.028;5.670;2023-05-10T04:37:01;74.00;;;31.88;;
27558;SDS011;15002;52.028;5.670;2023-05-10T04:39:26;79.18;;;31.65;;
27558;SDS011;15002;52.028;5.670;2023-05-10T04:41:52;68.32;;;29.42;;
27558;SDS011;15002;52.028;5.670;2023-05-10T04:44:18;72.40;;;29.80;;
27558;SDS011;15002;52.028;5.670;2023-05-10T04:46:43;65.18;;;27.60;;
27558;SDS011;15002;52.028;5.670;2023-05-10T04:49:09;60.63;;;26.73;;
27558;SDS011;15002;52.028;5.670;2023-05-10T04:51:34;65.10;;;27.30;;
27558;SDS011;15002;52.028;5.670;2023-05-10T04:54:00;62.65;;;27.02;;
27558;SDS011;15002;52.028;5.670;2023-05-10T04:56:25;62.72;;;26.23;;
27558;SDS011;15002;52.028;5.670;2023-05-10T04:58:51;63.47;;;27.23;;
27558;SDS011;15002;52.028;5.670;2023-05-10T05:01:17;63.25;;;26.83;;
27558;SDS011;15002;52.028;5.670;2023-05-10T05:03:42;63.20;;;25.75;;
27558;SDS011;15002;52.028;5.670;2023-05-10T05:06:08;58.58;;;27.23;;
27558;SDS011;15002;52.028;5.670;2023-05-10T05:08:33;64.65;;;26.33;;
27558;SDS011;15002;52.028;5.670;2023-05-10T05:10:59;62.75;;;25.52;;
27558;SDS011;15002;52.028;5.670;2023-05-10T05:13:25;62.70;;;26.13;;
27558;SDS011;15002;52.028;5.670;2023-05-10T05:15:50;62.15;;;28.10;;
27558;SDS011;15002;52.028;5.670;2023-05-10T05:18:16;71.93;;;29.33;;
27558;SDS011;15002;52.028;5.670;2023-05-10T05:20:42;66.50;;;29.60;;
27558;SDS011;15002;52.028;5.670;2023-05-10T05:23:07;77.22;;;29.90;;
27558;SDS011;15002;52.028;5.670;2023-05-10T05:25:33;75.60;;;31.02;;
27558;SDS011;15002;52.028;5.670;2023-05-10T05:27:59;81.43;;;32.65;;
27558;SDS011;15002;52.028;5.670;2023-05-10T05:30:24;71.03;;;28.90;;
27558;SDS011;15002;52.028;5.670;2023-05-10T05:32:50;75.78;;;30.58;;
27558;SDS011;15002;52.028;5.670;2023-05-10T05:35:16;77.53;;;32.67;;
27558;SDS011;15002;52.028;5.670;2023-05-10T05:37:41;73.55;;;30.58;;
27558;SDS011;15002;52.028;5.670;2023-05-10T05:40:07;80.03;;;31.98;;
27558;SDS011;15002;52.028;5.670;2023-05-10T05:42:33;76.03;;;32.03;;
27558;SDS011;15002;52.028;5.670;2023-05-10T05:44:59;81.18;;;32.17;;
27558;SDS011;15002;52.028;5.670;2023-05-10T05:47:24;80.63;;;33.45;;
27558;SDS011;15002;52.028;5.670;2023-05-10T05:49:50;76.93;;;33.20;;
27558;SDS011;15002;52.028;5.670;2023-05-10T05:52:16;75.55;;;32.53;;
27558;SDS011;15002;52.028;5.670;2023-05-10T05:54:41;66.72;;;30.50;;
27558;SDS011;15002;52.028;5.670;2023-05-10T05:57:07;76.90;;;33.70;;
27558;SDS011;15002;52.028;5.670;2023-05-10T05:59:33;74.47;;;32.60;;
27558;SDS011;15002;52.028;5.670;2023-05-10T06:01:59;65.35;;;29.77;;
27558;SDS011;15002;52.028;5.670;2023-05-10T06:04:25;70.35;;;30.48;;
27558;SDS011;15002;52.028;5.670;2023-05-10T06:06:51;76.47;;;32.28;;
27558;SDS011;15002;52.028;5.670;2023-05-10T06:09:16;76.03;;;32.25;;
27558;SDS011;15002;52.028;5.670;2023-05-10T06:11:42;69.28;;;31.23;;
27558;SDS011;15002;52.028;5.670;2023-05-10T06:14:08;76.80;;;33.22;;
27558;SDS011;15002;52.028;5.670;2023-05-10T06:16:34;72.18;;;32.65;;
27558;SDS011;15002;52.028;5.670;2023-05-10T06:19:00;73.65;;;32.05;;
27558;SDS011;15002;52.028;5.670;2023-05-10T06:21:26;77.72;;;34.85;;
27558;SDS011;15002;52.028;5.670;2023-05-10T06:23:51;81.78;;;34.47;;
27558;SDS011;15002;52.028;5.670;2023-05-10T06:26:17;82.57;;;34.92;;
27558;SDS011;15002;52.028;5.670;2023-05-10T06:28:42;80.32;;;33.63;;
27558;SDS011;15002;52.028;5.670;2023-05-10T06:31:08;74.70;;;32.30;;
27558;SDS011;15002;52.028;5.670;2023-05-10T06:33:36;74.18;;;32.30;;
27558;SDS011;15002;52.028;5.670;2023-05-10T06:36:02;76.53;;;31.38;;
27558;SDS011;15002;52.028;5.670;2023-05-10T06:38:27;65.78;;;31.58;;
27558;SDS011;15002;52.028;5.670;2023-05-10T06:40:53;63.83;;;29.73;;
27558;SDS011;15002;52.028;5.670;2023-05-10T06:43:19;62.28;;;28.70;;
27558;SDS011;15002;52.028;5.670;2023-05-10T06:45:44;60.83;;;29.17;;
27558;SDS011;15002;52.028;5.670;2023-05-10T06:48:10;62.15;;;29.20;;
27558;SDS011;15002;52.028;5.670;2023-05-10T06:50:36;68.20;;;30.17;;
27558;SDS011;15002;52.028;5.670;2023-05-10T06:53:01;67.15;;;31.52;;
27558;SDS011;15002;52.028;5.670;2023-05-10T06:55:27;68.40;;;29.25;;
27558;SDS011;15002;52.028;5.670;2023-05-10T06:57:54;70.88;;;29.58;;
27558;SDS011;15002;52.028;5.670;2023-05-10T07:00:20;68.82;;;30.60;;
27558;SDS011;15002;52.028;5.670;2023-05-10T07:02:46;74.78;;;30.77;;
27558;SDS011;15002;52.028;5.670;2023-05-10T07:05:12;76.65;;;32.42;;
27558;SDS011;15002;52.028;5.670;2023-05-10T07:07:38;65.63;;;28.98;;
27558;SDS011;15002;52.028;5.670;2023-05-10T07:10:04;65.53;;;29.63;;
27558;SDS011;15002;52.028;5.670;2023-05-10T07:12:30;68.25;;;30.83;;
27558;SDS011;15002;52.028;5.670;2023-05-10T07:14:56;72.22;;;30.90;;
27558;SDS011;15002;52.028;5.670;2023-05-10T07:17:22;75.85;;;31.70;;
27558;SDS011;15002;52.028;5.670;2023-05-10T07:19:47;77.13;;;32.50;;
27558;SDS011;15002;52.028;5.670;2023-05-10T07:22:14;73.70;;;32.83;;
27558;SDS011;15002;52.028;5.670;2023-05-10T07:24:40;71.25;;;32.20;;
27558;SDS011;15002;52.028;5.670;2023-05-10T07:27:06;81.00;;;33.80;;
27558;SDS011;15002;52.028;5.670;2023-05-10T07:29:31;70.85;;;32.72;;
27558;SDS011;15002;52.028;5.670;2023-05-10T07:31:57;84.18;;;34.15;;
27558;SDS011;15002;52.028;5.670;2023-05-10T07:34:23;74.88;;;34.03;;
27558;SDS011;15002;52.028;5.670;2023-05-10T07:36:49;71.97;;;32.60;;
27558;SDS011;15002;52.028;5.670;2023-05-10T07:39:14;65.78;;;30.08;;
27558;SDS011;15002;52.028;5.670;2023-05-10T07:41:40;62.88;;;29.83;;
27558;SDS011;15002;52.028;5.670;2023-05-10T07:44:06;57.75;;;28.60;;
27558;SDS011;15002;52.028;5.670;2023-05-10T07:46:32;53.55;;;27.02;;
27558;SDS011;15002;52.028;5.670;2023-05-10T07:48:57;52.05;;;27.63;;
27558;SDS011;15002;52.028;5.670;2023-05-10T07:51:23;55.40;;;26.35;;
27558;SDS011;15002;52.028;5.670;2023-05-10T07:53:48;55.25;;;26.48;;
27558;SDS011;15002;52.028;5.670;2023-05-10T07:56:27;52.83;;;26.58;;
27558;SDS011;15002;52.028;5.670;2023-05-10T07:58:57;48.42;;;23.08;;
27558;SDS011;15002;52.028;5.670;2023-05-10T08:01:24;44.75;;;22.55;;
27558;SDS011;15002;52.028;5.670;2023-05-10T08:03:50;37.60;;;21.52;;
27558;SDS011;15002;52.028;5.670;2023-05-10T08:06:19;39.67;;;19.73;;
27558;SDS011;15002;52.028;5.670;2023-05-10T08:08:46;36.65;;;19.38;;
27558;SDS011;15002;52.028;5.670;2023-05-10T08:11:17;41.95;;;19.75;;
27558;SDS011;15002;52.028;5.670;2023-05-10T08:13:44;38.53;;;18.95;;
27558;SDS011;15002;52.028;5.670;2023-05-10T08:16:10;34.95;;;17.55;;
27558;SDS011;15002;52.028;5.670;2023-05-10T08:18:36;31.90;;;16.00;;
27558;SDS011;15002;52.028;5.670;2023-05-10T08:21:02;25.63;;;13.90;;
27558;SDS011;15002;52.028;5.670;2023-05-10T08:23:27;22.83;;;12.80;;
27558;SDS011;15002;52.028;5.670;2023-05-10T08:25:53;20.60;;;11.90;;
27558;SDS011;15002;52.028;5.670;2023-05-10T08:28:19;22.08;;;12.27;;
27558;SDS011;15002;52.028;5.670;2023-05-10T08:30:44;19.02;;;11.55;;
27558;SDS011;15002;52.028;5.670;2023-05-10T08:33:10;18.40;;;10.65;;
27558;SDS011;15002;52.028;5.670;2023-05-10T08:35:35;20.02;;;10.65;;
27558;SDS011;15002;52.028;5.670;2023-05-10T08:38:01;21.10;;;11.95;;
27558;SDS011;15002;52.028;5.670;2023-05-10T08:40:27;18.80;;;10.52;;
27558;SDS011;15002;52.028;5.670;2023-05-10T08:42:58;16.90;;;10.35;;
27558;SDS011;15002;52.028;5.670;2023-05-10T08:45:31;15.05;;;9.85;;
27558;SDS011;15002;52.028;5.670;2023-05-10T08:47:57;15.65;;;10.07;;
27558;SDS011;15002;52.028;5.670;2023-05-10T08:50:26;15.43;;;9.68;;
27558;SDS011;15002;52.028;5.670;2023-05-10T08:52:52;15.73;;;10.65;;
27558;SDS011;15002;52.028;5.670;2023-05-10T08:55:20;16.42;;;10.10;;
27558;SDS011;15002;52.028;5.670;2023-05-10T08:57:48;18.15;;;10.30;;
27558;SDS011;15002;52.028;5.670;2023-05-10T09:00:14;14.38;;;9.65;;
27558;SDS011;15002;52.028;5.670;2023-05-10T09:02:40;16.38;;;9.38;;
27558;SDS011;15002;52.028;5.670;2023-05-10T09:05:08;15.02;;;9.63;;
27558;SDS011;15002;52.028;5.670;2023-05-10T09:07:35;13.88;;;9.35;;
27558;SDS011;15002;52.028;5.670;2023-05-10T09:10:01;16.58;;;9.63;;
27558;SDS011;15002;52.028;5.670;2023-05-10T09:12:28;17.65;;;10.65;;
27558;SDS011;15002;52.028;5.670;2023-05-10T09:14:53;15.75;;;10.30;;
27558;SDS011;15002;52.028;5.670;2023-05-10T09:17:22;18.33;;;10.13;;
27558;SDS011;15002;52.028;5.670;2023-05-10T09:19:48;16.35;;;10.00;;
27558;SDS011;15002;52.028;5.670;2023-05-10T09:22:14;17.77;;;11.23;;
27558;SDS011;15002;52.028;5.670;2023-05-10T09:24:40;18.63;;;11.45;;
27558;SDS011;15002;52.028;5.670;2023-05-10T09:27:10;19.02;;;10.82;;
27558;SDS011;15002;52.028;5.670;2023-05-10T09:29:42;20.92;;;11.70;;
27558;SDS011;15002;52.028;5.670;2023-05-10T09:32:08;19.13;;;11.05;;
27558;SDS011;15002;52.028;5.670;2023-05-10T09:34:33;17.70;;;11.07;;
27558;SDS011;15002;52.028;5.670;2023-05-10T09:37:05;23.02;;;12.32;;
27558;SDS011;15002;52.028;5.670;2023-05-10T09:39:34;21.83;;;11.55;;
27558;SDS011;15002;52.028;5.670;2023-05-10T09:42:07;18.60;;;11.60;;
27558;SDS011;15002;52.028;5.670;2023-05-10T09:44:34;18.10;;;12.07;;
27558;SDS011;15002;52.028;5.670;2023-05-10T09:47:00;18.55;;;11.93;;
27558;SDS011;15002;52.028;5.670;2023-05-10T09:49:27;21.50;;;12.20;;
27558;SDS011;15002;52.028;5.670;2023-05-10T09:54:28;20.52;;;12.57;;
27558;SDS011;15002;52.028;5.670;2023-05-10T09:56:54;17.38;;;11.45;;
27558;SDS011;15002;52.028;5.670;2023-05-10T09:59:20;17.38;;;11.02;;
27558;SDS011;15002;52.028;5.670;2023-05-10T10:01:49;19.17;;;10.98;;
27558;SDS011;15002;52.028;5.670;2023-05-10T10:04:16;21.75;;;11.23;;
27558;SDS011;15002;52.028;5.670;2023-05-10T10:06:42;19.95;;;11.65;;
27558;SDS011;15002;52.028;5.670;2023-05-10T10:09:08;18.55;;;11.45;;
27558;SDS011;15002;52.028;5.670;2023-05-10T10:11:35;18.15;;;11.40;;
27558;SDS011;15002;52.028;5.670;2023-05-10T10:14:02;17.95;;;10.98;;
27558;SDS011;15002;52.028;5.670;2023-05-10T10:16:31;15.48;;;10.15;;
27558;SDS011;15002;52.028;5.670;2023-05-10T10:18:57;20.40;;;10.88;;
27558;SDS011;15002;52.028;5.670;2023-05-10T10:21:23;12.95;;;8.82;;
27558;SDS011;15002;52.028;5.670;2023-05-10T10:23:49;12.45;;;7.97;;
27558;SDS011;15002;52.028;5.670;2023-05-10T10:26:16;10.20;;;6.72;;
27558;SDS011;15002;52.028;5.670;2023-05-10T10:31:32;8.10;;;6.00;;
27558;SDS011;15002;52.028;5.670;2023-05-10T10:34:10;7.00;;;5.18;;
27558;SDS011;15002;52.028;5.670;2023-05-10T10:36:45;8.93;;;6.13;;
27558;SDS011;15002;52.028;5.670;2023-05-10T10:39:12;11.35;;;6.47;;
27558;SDS011;15002;52.028;5.670;2023-05-10T10:41:39;7.47;;;5.35;;
27558;SDS011;15002;52.028;5.670;2023-05-10T10:47:10;6.38;;;3.95;;
27558;SDS011;15002;52.028;5.670;2023-05-10T10:49:52;6.85;;;4.55;;
27558;SDS011;15002;52.028;5.670;2023-05-10T10:52:38;8.15;;;5.50;;
27558;SDS011;15002;52.028;5.670;2023-05-10T10:55:06;8.13;;;5.88;;
27558;SDS011;15002;52.028;5.670;2023-05-10T11:02:55;13.23;;;7.28;;
27558;SDS011;15002;52.028;5.670;2023-05-10T11:05:45;11.00;;;7.25;;
27558;SDS011;15002;52.028;5.670;2023-05-10T11:08:27;14.73;;;7.03;;
27558;SDS011;15002;52.028;5.670;2023-05-10T11:15:55;11.00;;;7.10;;
27558;SDS011;15002;52.028;5.670;2023-05-10T11:20:58;9.27;;;6.30;;
27558;SDS011;15002;52.028;5.670;2023-05-10T11:23:32;8.57;;;6.20;;
27558;SDS011;15002;52.028;5.670;2023-05-10T11:26:13;10.60;;;6.60;;
27558;SDS011;15002;52.028;5.670;2023-05-10T11:28:42;10.57;;;6.65;;
27558;SDS011;15002;52.028;5.670;2023-05-10T11:31:08;9.27;;;6.68;;
27558;SDS011;15002;52.028;5.670;2023-05-10T11:33:44;10.80;;;7.13;;
27558;SDS011;15002;52.028;5.670;2023-05-10T11:36:21;9.50;;;6.50;;
27558;SDS011;15002;52.028;5.670;2023-05-10T11:38:48;10.23;;;6.50;;
27558;SDS011;15002;52.028;5.670;2023-05-10T11:41:15;9.10;;;6.90;;
27558;SDS011;15002;52.028;5.670;2023-05-10T11:43:42;12.75;;;7.18;;
27558;SDS011;15002;52.028;5.670;2023-05-10T11:46:10;13.15;;;6.85;;
27558;SDS011;15002;52.028;5.670;2023-05-10T11:48:40;9.60;;;6.70;;
27558;SDS011;15002;52.028;5.670;2023-05-10T11:51:07;11.48;;;6.53;;
27558;SDS011;15002;52.028;5.670;2023-05-10T11:53:34;10.13;;;6.75;;
27558;SDS011;15002;52.028;5.670;2023-05-10T11:56:05;8.18;;;5.90;;
27558;SDS011;15002;52.028;5.670;2023-05-10T11:58:33;9.57;;;6.20;;
27558;SDS011;15002;52.028;5.670;2023-05-10T12:00:59;8.93;;;6.10;;
27558;SDS011;15002;52.028;5.670;2023-05-10T12:03:26;8.52;;;5.82;;
27558;SDS011;15002;52.028;5.670;2023-05-10T12:05:52;10.52;;;6.60;;
27558;SDS011;15002;52.028;5.670;2023-05-10T12:08:26;10.20;;;6.18;;
27558;SDS011;15002;52.028;5.670;2023-05-10T12:10:53;8.13;;;5.55;;
27558;SDS011;15002;52.028;5.670;2023-05-10T12:13:28;8.32;;;5.85;;
27558;SDS011;15002;52.028;5.670;2023-05-10T12:15:54;9.98;;;6.60;;
27558;SDS011;15002;52.028;5.670;2023-05-10T12:18:23;9.75;;;6.70;;
27558;SDS011;15002;52.028;5.670;2023-05-10T12:20:52;10.63;;;7.22;;
27558;SDS011;15002;52.028;5.670;2023-05-10T12:23:20;10.23;;;6.68;;
27558;SDS011;15002;52.028;5.670;2023-05-10T12:25:46;9.48;;;6.70;;
27558;SDS011;15002;52.028;5.670;2023-05-10T12:28:12;9.25;;;6.28;;
27558;SDS011;15002;52.028;5.670;2023-05-10T12:30:38;10.05;;;6.63;;
27558;SDS011;15002;52.028;5.670;2023-05-10T12:33:08;10.10;;;5.85;;
27558;SDS011;15002;52.028;5.670;2023-05-10T12:35:45;7.53;;;5.90;;
27558;SDS011;15002;52.028;5.670;2023-05-10T12:40:58;7.55;;;6.15;;
27558;SDS011;15002;52.028;5.670;2023-05-10T12:43:25;5.88;;;4.82;;
27558;SDS011;15002;52.028;5.670;2023-05-10T12:45:51;9.00;;;5.78;;
27558;SDS011;15002;52.028;5.670;2023-05-10T12:48:17;8.27;;;5.93;;
27558;SDS011;15002;52.028;5.670;2023-05-10T12:50:43;9.10;;;6.15;;
27558;SDS011;15002;52.028;5.670;2023-05-10T12:53:09;7.43;;;5.63;;
27558;SDS011;15002;52.028;5.670;2023-05-10T12:55:34;9.38;;;6.00;;
27558;SDS011;15002;52.028;5.670;2023-05-10T12:58:00;8.65;;;5.95;;
27558;SDS011;15002;52.028;5.670;2023-05-10T13:00:26;7.22;;;5.30;;
27558;SDS011;15002;52.028;5.670;2023-05-10T13:02:51;8.90;;;4.90;;
27558;SDS011;15002;52.028;5.670;2023-05-10T13:05:18;7.50;;;5.32;;
27558;SDS011;15002;52.028;5.670;2023-05-10T13:07:43;10.65;;;5.20;;
27558;SDS011;15002;52.028;5.670;2023-05-10T13:10:09;7.43;;;5.00;;
27558;SDS011;15002;52.028;5.670;2023-05-10T13:12:35;8.15;;;4.68;;
27558;SDS011;15002;52.028;5.670;2023-05-10T13:15:01;6.05;;;4.10;;
27558;SDS011;15002;52.028;5.670;2023-05-10T13:17:28;8.40;;;4.88;;
27558;SDS011;15002;52.028;5.670;2023-05-10T13:19:54;8.68;;;5.88;;
27558;SDS011;15002;52.028;5.670;2023-05-10T13:22:20;8.90;;;7.07;;
27558;SDS011;15002;52.028;5.670;2023-05-10T13:24:45;12.48;;;9.02;;
27558;SDS011;15002;52.028;5.670;2023-05-10T13:27:11;14.93;;;10.25;;
27558;SDS011;15002;52.028;5.670;2023-05-10T13:29:37;13.10;;;10.63;;
27558;SDS011;15002;52.028;5.670;2023-05-10T13:32:02;12.18;;;10.65;;
27558;SDS011;15002;52.028;5.670;2023-05-10T13:34:28;16.63;;;11.82;;
27558;SDS011;15002;52.028;5.670;2023-05-10T13:36:53;18.80;;;13.10;;
27558;SDS011;15002;52.028;5.670;2023-05-10T13:39:21;21.85;;;14.20;;
27558;SDS011;15002;52.028;5.670;2023-05-10T13:41:47;19.48;;;15.02;;
27558;SDS011;15002;52.028;5.670;2023-05-10T13:44:12;17.83;;;14.45;;
27558;SDS011;15002;52.028;5.670;2023-05-10T13:46:39;21.95;;;15.35;;
27558;SDS011;15002;52.028;5.670;2023-05-10T13:49:08;12.52;;;9.63;;
27558;SDS011;15002;52.028;5.670;2023-05-10T13:51:34;12.57;;;9.38;;
27558;SDS011;15002;52.028;5.670;2023-05-10T13:54:00;8.75;;;6.97;;
27558;SDS011;15002;52.028;5.670;2023-05-10T13:56:29;8.30;;;7.00;;
27558;SDS011;15002;52.028;5.670;2023-05-10T13:58:58;9.85;;;6.45;;
27558;SDS011;15002;52.028;5.670;2023-05-10T14:01:24;9.63;;;6.40;;
27558;SDS011;15002;52.028;5.670;2023-05-10T14:03:50;10.82;;;7.28;;
27558;SDS011;15002;52.028;5.670;2023-05-10T14:06:15;15.45;;;7.85;;
27558;SDS011;15002;52.028;5.670;2023-05-10T14:08:41;9.82;;;8.20;;
27558;SDS011;15002;52.028;5.670;2023-05-10T14:11:07;10.07;;;8.30;;
27558;SDS011;15002;52.028;5.670;2023-05-10T14:13:33;8.38;;;7.38;;
27558;SDS011;15002;52.028;5.670;2023-05-10T14:15:58;7.60;;;6.28;;
27558;SDS011;15002;52.028;5.670;2023-05-10T14:18:27;9.25;;;7.40;;
27558;SDS011;15002;52.028;5.670;2023-05-10T14:20:53;8.35;;;6.55;;
27558;SDS011;15002;52.028;5.670;2023-05-10T14:23:19;9.90;;;7.15;;
27558;SDS011;15002;52.028;5.670;2023-05-10T14:25:48;10.80;;;5.93;;
27558;SDS011;15002;52.028;5.670;2023-05-10T14:28:17;9.98;;;6.05;;
27558;SDS011;15002;52.028;5.670;2023-05-10T14:30:43;8.60;;;5.90;;
27558;SDS011;15002;52.028;5.670;2023-05-10T14:33:09;9.80;;;5.68;;
27558;SDS011;15002;52.028;5.670;2023-05-10T14:35:35;9.00;;;4.90;;
27558;SDS011;15002;52.028;5.670;2023-05-10T14:38:01;6.40;;;4.80;;
27558;SDS011;15002;52.028;5.670;2023-05-10T14:40:28;8.68;;;5.25;;
27558;SDS011;15002;52.028;5.670;2023-05-10T14:42:54;6.63;;;4.45;;
27558;SDS011;15002;52.028;5.670;2023-05-10T14:45:21;8.00;;;5.10;;
27558;SDS011;15002;52.028;5.670;2023-05-10T14:47:47;7.25;;;4.78;;
27558;SDS011;15002;52.028;5.670;2023-05-10T14:50:13;7.55;;;4.55;;
27558;SDS011;15002;52.028;5.670;2023-05-10T14:52:39;6.50;;;4.63;;
27558;SDS011;15002;52.028;5.670;2023-05-10T14:55:05;6.72;;;4.88;;
27558;SDS011;15002;52.028;5.670;2023-05-10T14:57:31;7.65;;;5.38;;
27558;SDS011;15002;52.028;5.670;2023-05-10T14:59:57;8.73;;;5.30;;
27558;SDS011;15002;52.028;5.670;2023-05-10T15:02:22;6.97;;;5.60;;